Terminal Aerodrome Forecast
Issued by NWS Paducah, KY

Home | Current Version | Previous Version | Text Only | Print | Product List | Glossary On
Versions: 1 2 3 4 5 6 7 8 9 10 11 12 13 14 15 16 17 18 19
140
FTUS43 KPAH 011327 AAA
TAFPAH
TAF AMD
KPAH 011327Z 0113/0212 24008KT 4SM BR SCT003 BKN008
      TEMPO 0113/0117 2SM BR BKN003
     FM011700 27005KT P6SM VCSH BKN020
     FM020100 VRB02KT P6SM BKN040
     FM020600 00000KT 3SM BR SCT050=

USA.gov is the U.S. government's official web portal to all federal, state and local government web resources and services.